createdAt,value
2023-02-16T00:01:49.760Z,34.47
2023-02-16T00:04:51.993Z,34.78
2023-02-16T00:07:55.391Z,30.40
2023-02-16T00:11:16.077Z,36.17
2023-02-16T00:14:22.846Z,38.77
2023-02-16T00:17:25.247Z,36.83
2023-02-16T00:20:30.430Z,34.28
2023-02-16T00:23:32.754Z,37.20
2023-02-16T00:26:35.937Z,36.55
2023-02-16T00:29:38.477Z,36.80
2023-02-16T00:32:40.824Z,33.83
2023-02-16T00:35:44.811Z,38.53
2023-02-16T00:38:47.454Z,34.05
2023-02-16T00:41:53.836Z,40.33
2023-02-16T00:44:57.895Z,35.63
2023-02-16T00:48:00.320Z,30.48
2023-02-16T00:51:08.885Z,37.05
2023-02-16T00:54:19.320Z,35.13
2023-02-16T00:57:22.503Z,36.63
2023-02-16T01:00:48.037Z,36.27
2023-02-16T01:03:50.836Z,42.08
2023-02-16T01:07:11.695Z,37.47
2023-02-16T01:10:32.476Z,33.97
2023-02-16T01:13:49.310Z,33.90
2023-02-16T01:16:51.774Z,36.30
2023-02-16T01:19:54.716Z,34.10
2023-02-16T01:22:58.640Z,36.20
2023-02-16T01:26:00.902Z,38.85
2023-02-16T01:29:03.522Z,30.42
2023-02-16T01:32:06.044Z,37.23
2023-02-16T01:35:08.938Z,33.42
2023-02-16T01:38:27.166Z,33.55
2023-02-16T01:41:44.251Z,36.80
2023-02-16T01:45:13.566Z,40.35
2023-02-16T01:48:27.817Z,40.70
2023-02-16T01:51:40.979Z,33.33
2023-02-16T01:55:08.190Z,37.13
2023-02-16T01:58:33.898Z,33.53
2023-02-16T02:02:00.797Z,41.95
2023-02-16T02:05:24.678Z,33.40
2023-02-16T02:08:37.202Z,33.38
2023-02-16T02:12:02.737Z,36.72
2023-02-16T02:15:05.829Z,37.72
2023-02-16T02:18:08.122Z,32.05
2023-02-16T02:22:14.669Z,36.83
2023-02-16T02:25:43.258Z,39.30
2023-02-16T02:29:07.615Z,35.85
2023-02-16T02:32:30.592Z,33.80
2023-02-16T02:35:57.145Z,31.95
2023-02-16T02:39:02.185Z,37.83
2023-02-16T02:42:07.338Z,39.95
2023-02-16T02:45:28.265Z,41.55
2023-02-16T02:48:34.762Z,35.88
2023-02-16T02:51:40.471Z,41.30
2023-02-16T02:55:01.204Z,43.80
2023-02-16T02:58:23.864Z,38.67
2023-02-16T03:01:27.633Z,38.10
2023-02-16T03:04:31.048Z,37.97
2023-02-16T03:07:47.973Z,38.08
2023-02-16T03:11:39.640Z,35.67
2023-02-16T03:14:46.448Z,34.53
2023-02-16T03:18:07.730Z,42.85
2023-02-16T03:21:32.835Z,35.13
2023-02-16T03:24:53.719Z,34.58
2023-02-16T03:28:15.427Z,40.50
2023-02-16T03:31:22.594Z,35.97
2023-02-16T03:34:25.355Z,33.35
2023-02-16T03:37:27.724Z,39.40
2023-02-16T03:40:35.141Z,36.58
2023-02-16T03:43:37.656Z,35.47
2023-02-16T03:46:40.002Z,37.75
2023-02-16T03:49:42.375Z,37.40
2023-02-16T03:52:44.917Z,37.50
2023-02-16T03:55:48.606Z,40.28
2023-02-16T03:58:51.057Z,34.97
2023-02-16T04:01:53.440Z,36.85
2023-02-16T04:04:55.806Z,39.40
2023-02-16T04:07:58.095Z,36.95
2023-02-16T04:11:00.636Z,35.92
2023-02-16T04:14:03.325Z,30.97
2023-02-16T04:17:05.607Z,34.35
2023-02-16T04:20:10.227Z,40.25
2023-02-16T04:23:15.385Z,36.25
2023-02-16T04:26:17.608Z,44.47
2023-02-16T04:29:19.931Z,36.93
2023-02-16T04:32:22.214Z,28.90
2023-02-16T04:35:24.640Z,36.80
2023-02-16T04:38:27.060Z,32.38
2023-02-16T04:41:29.533Z,36.97
2023-02-16T04:44:31.932Z,35.63
2023-02-16T04:47:34.361Z,34.92
2023-02-16T04:50:36.754Z,38.50
2023-02-16T04:53:39.086Z,30.58
2023-02-16T04:56:44.576Z,32.35
2023-02-16T04:59:47.488Z,36.53
2023-02-16T05:02:49.892Z,40.50
2023-02-16T05:05:52.117Z,47.90
2023-02-16T05:08:54.518Z,40.58
2023-02-16T05:12:15.506Z,37.80
2023-02-16T05:15:17.979Z,32.00
2023-02-16T05:18:20.382Z,35.72
2023-02-16T05:21:31.835Z,37.20
2023-02-16T05:24:35.076Z,38.22
2023-02-16T05:27:37.624Z,39.22
2023-02-16T05:30:40.100Z,33.70
2023-02-16T05:33:43.027Z,33.70
2023-02-16T05:36:45.498Z,36.95
2023-02-16T05:39:47.991Z,34.83
2023-02-16T05:42:54.375Z,41.42
2023-02-16T05:45:56.718Z,34.77
2023-02-16T05:49:00.646Z,32.33
2023-02-16T05:52:03.289Z,35.30
2023-02-16T05:55:05.910Z,39.30
2023-02-16T05:58:08.252Z,39.38
2023-02-16T06:01:11.057Z,40.13
2023-02-16T06:04:15.294Z,40.35
2023-02-16T06:07:17.767Z,40.17
2023-02-16T06:10:20.342Z,38.00
2023-02-16T06:13:23.636Z,38.38
2023-02-16T06:16:27.262Z,34.53
2023-02-16T06:19:29.846Z,48.10
2023-02-16T06:22:32.370Z,47.53
2023-02-16T06:25:35.022Z,42.40
2023-02-16T06:28:37.559Z,35.42
2023-02-16T06:31:40.094Z,38.37
2023-02-16T06:34:42.543Z,35.33
2023-02-16T06:37:45.126Z,38.55
2023-02-16T06:40:47.534Z,41.03
2023-02-16T06:43:50.196Z,38.45
2023-02-16T06:46:52.541Z,35.97
2023-02-16T06:49:54.942Z,40.88
2023-02-16T06:52:57.363Z,35.30
2023-02-16T06:55:59.674Z,36.70
2023-02-16T06:59:02.754Z,37.10
2023-02-16T07:02:05.044Z,44.13
2023-02-16T07:05:08.059Z,36.25
2023-02-16T07:08:10.575Z,40.60
2023-02-16T07:11:13.084Z,51.40
2023-02-16T07:14:16.368Z,42.90
2023-02-16T07:17:18.663Z,63.23
2023-02-16T07:20:21.039Z,78.87
2023-02-16T07:23:23.738Z,74.87
2023-02-16T07:26:26.252Z,57.75
2023-02-16T07:29:28.628Z,85.12
2023-02-16T07:32:31.048Z,81.17
2023-02-16T07:35:37.608Z,74.80
2023-02-16T07:38:42.138Z,46.75
2023-02-16T07:41:44.579Z,76.12
2023-02-16T07:44:46.918Z,66.93
2023-02-16T07:47:49.238Z,52.83
2023-02-16T07:50:51.716Z,73.47
2023-02-16T07:53:54.611Z,48.42
2023-02-16T07:56:56.941Z,69.78
2023-02-16T07:59:59.378Z,76.87
2023-02-16T08:03:02.387Z,28.80
2023-02-16T08:06:05.404Z,52.67
2023-02-16T08:09:07.756Z,66.05
2023-02-16T08:12:12.408Z,46.05
2023-02-16T08:15:14.891Z,53.67
2023-02-16T08:18:17.485Z,43.30
2023-02-16T08:21:22.179Z,51.40
2023-02-16T08:24:26.587Z,43.08
2023-02-16T08:27:28.953Z,62.22
2023-02-16T08:30:31.528Z,43.08
2023-02-16T08:33:34.938Z,58.20
2023-02-16T08:36:40.234Z,65.47
2023-02-16T08:39:43.020Z,71.65
2023-02-16T08:42:45.526Z,60.60
2023-02-16T08:45:48.585Z,51.90
2023-02-16T08:48:51.098Z,55.30
2023-02-16T08:51:56.157Z,61.53
2023-02-16T08:54:58.592Z,59.55
2023-02-16T08:58:01.342Z,61.05
2023-02-16T09:01:06.238Z,58.17
2023-02-16T09:04:09.216Z,51.80
2023-02-16T09:07:11.521Z,52.03
2023-02-16T09:10:14.082Z,53.72
2023-02-16T09:13:16.483Z,59.70
2023-02-16T09:16:22.742Z,35.58
2023-02-16T09:19:26.019Z,53.20
2023-02-16T09:22:28.329Z,53.83
2023-02-16T09:25:30.694Z,57.33
2023-02-16T09:28:40.504Z,51.78
2023-02-16T09:31:44.572Z,52.92
2023-02-16T09:34:50.278Z,46.57
2023-02-16T09:37:52.966Z,47.47
2023-02-16T09:40:57.152Z,57.35
2023-02-16T09:44:11.540Z,54.92
2023-02-16T09:47:29.616Z,51.70
2023-02-16T09:54:04.402Z,50.23
2023-02-16T09:57:38.990Z,47.10
2023-02-16T10:00:44.699Z,49.58
2023-02-16T10:03:56.127Z,52.05
2023-02-16T10:07:26.000Z,55.83
2023-02-16T10:10:50.868Z,53.77
2023-02-16T10:13:57.566Z,41.13
2023-02-16T10:17:38.659Z,45.08
2023-02-16T10:20:44.387Z,36.45
2023-02-16T10:23:56.868Z,51.00
2023-02-16T10:27:08.521Z,51.07
2023-02-16T10:30:19.871Z,52.50
2023-02-16T10:33:53.597Z,51.05
2023-02-16T10:37:05.229Z,38.38
2023-02-16T10:40:27.798Z,46.83
2023-02-16T10:43:42.030Z,52.73
2023-02-16T10:46:48.212Z,55.33
2023-02-16T10:49:51.709Z,52.80
2023-02-16T10:53:16.017Z,42.90
2023-02-16T10:56:50.834Z,50.43
2023-02-16T10:59:54.993Z,57.43
2023-02-16T11:03:00.714Z,51.83
2023-02-16T11:06:22.075Z,50.45
2023-02-16T11:09:28.913Z,54.90
2023-02-16T11:12:39.297Z,56.47
2023-02-16T11:15:41.702Z,56.57
2023-02-16T11:18:47.173Z,57.30
2023-02-16T11:21:52.744Z,52.47
2023-02-16T11:24:55.528Z,59.03
2023-02-16T11:28:02.324Z,55.33
2023-02-16T11:31:19.024Z,49.73
2023-02-16T11:34:36.118Z,57.80
2023-02-16T11:37:40.850Z,51.90
2023-02-16T11:40:53.288Z,55.47
2023-02-16T11:43:56.919Z,54.28
2023-02-16T11:47:04.070Z,50.40
2023-02-16T11:50:28.642Z,48.28
2023-02-16T11:53:34.833Z,47.75
2023-02-16T11:56:37.290Z,48.28
2023-02-16T11:59:40.836Z,44.42
2023-02-16T12:03:01.469Z,46.97
2023-02-16T12:06:18.883Z,40.65
2023-02-16T12:09:42.677Z,44.25
2023-02-16T12:12:54.216Z,41.80
2023-02-16T12:16:16.789Z,40.47
2023-02-16T12:19:48.488Z,45.73
2023-02-16T12:23:04.700Z,40.47
2023-02-16T12:26:19.310Z,42.38
2023-02-16T12:29:38.229Z,37.00
2023-02-16T12:32:59.650Z,36.35
2023-02-16T12:36:20.447Z,32.80
2023-02-16T12:39:32.162Z,34.10
2023-02-16T12:42:37.415Z,33.45
2023-02-16T12:45:44.553Z,32.17
2023-02-16T12:48:54.133Z,32.13
2023-02-16T12:52:12.331Z,29.77
2023-02-16T12:55:37.012Z,32.17
2023-02-16T12:58:44.064Z,29.35
2023-02-16T13:01:50.838Z,32.92
2023-02-16T13:05:10.469Z,30.10
2023-02-16T13:08:31.030Z,30.83
2023-02-16T13:11:40.737Z,28.42
2023-02-16T13:14:46.731Z,30.75
2023-02-16T13:18:30.607Z,30.35
2023-02-16T13:25:14.896Z,30.23
2023-02-16T13:28:41.473Z,33.13
2023-02-16T13:31:49.817Z,29.27
2023-02-16T13:35:20.268Z,29.15
2023-02-16T13:38:54.451Z,30.62
2023-02-16T13:42:02.979Z,28.77
2023-02-16T13:45:20.546Z,28.42
2023-02-16T13:48:27.003Z,26.95
2023-02-16T13:51:42.537Z,26.85
2023-02-16T13:54:50.245Z,29.27
2023-02-16T13:58:02.800Z,26.77
2023-02-16T14:01:34.355Z,28.12
2023-02-16T14:04:36.792Z,28.50
2023-02-16T14:07:39.994Z,27.20
2023-02-16T14:10:53.300Z,28.83
2023-02-16T14:13:55.772Z,28.83
2023-02-16T14:17:19.446Z,26.87
2023-02-16T14:20:22.038Z,28.62
2023-02-16T14:23:34.584Z,29.37
2023-02-16T14:26:56.535Z,28.92
2023-02-16T14:30:03.612Z,25.87
2023-02-16T14:33:12.753Z,26.30
2023-02-16T14:36:21.510Z,25.23
2023-02-16T14:39:26.666Z,26.98
2023-02-16T14:42:33.420Z,27.98
2023-02-16T14:45:51.254Z,26.20
2023-02-16T14:49:13.208Z,26.45
2023-02-16T14:52:15.580Z,24.98
2023-02-16T14:55:31.498Z,26.98
2023-02-16T14:59:26.185Z,30.40
2023-02-16T15:02:39.682Z,30.03
2023-02-16T15:05:42.241Z,32.58
2023-02-16T15:08:48.806Z,32.15
2023-02-16T15:12:13.880Z,35.40
2023-02-16T15:15:26.535Z,34.22
2023-02-16T15:18:37.772Z,41.60
2023-02-16T15:21:40.545Z,38.17
2023-02-16T15:24:43.264Z,41.28
2023-02-16T15:28:12.573Z,36.15
2023-02-16T15:31:18.803Z,37.57
2023-02-16T15:34:35.823Z,39.30
2023-02-16T15:37:40.688Z,41.75
2023-02-16T15:40:43.881Z,39.55
2023-02-16T15:43:52.312Z,39.58
2023-02-16T15:47:09.142Z,37.60
2023-02-16T15:50:16.005Z,44.00
2023-02-16T15:53:29.936Z,38.33
2023-02-16T15:56:52.342Z,41.65
2023-02-16T15:59:59.483Z,43.00
2023-02-16T16:03:02.270Z,43.87
2023-02-16T16:06:06.868Z,42.53
2023-02-16T16:09:22.179Z,44.67
2023-02-16T16:12:25.959Z,45.00
2023-02-16T16:15:30.944Z,47.28
2023-02-16T16:19:06.931Z,45.57
2023-02-16T16:22:33.587Z,44.27
2023-02-16T16:25:37.978Z,51.58
2023-02-16T16:28:42.341Z,49.10
2023-02-16T16:31:46.277Z,51.00
2023-02-16T16:34:50.376Z,47.03
2023-02-16T16:37:53.862Z,46.23
2023-02-16T16:41:01.856Z,45.72
2023-02-16T16:44:05.016Z,50.30
2023-02-16T16:47:40.867Z,59.55
2023-02-16T16:50:44.069Z,61.23
2023-02-16T16:54:19.399Z,57.70
2023-02-16T16:57:24.621Z,54.70
2023-02-16T17:00:35.087Z,61.58
2023-02-16T17:03:38.239Z,63.17
2023-02-16T17:06:41.493Z,59.77
2023-02-16T17:09:45.585Z,59.97
2023-02-16T17:12:53.557Z,57.97
2023-02-16T17:16:19.618Z,59.30
2023-02-16T17:19:24.082Z,57.85
2023-02-16T17:22:27.954Z,55.57
2023-02-16T17:25:33.398Z,51.43
2023-02-16T17:28:38.208Z,63.13
2023-02-16T17:31:42.178Z,58.53
2023-02-16T17:34:45.547Z,71.32
2023-02-16T17:37:50.029Z,89.73
2023-02-16T17:40:57.077Z,77.03
2023-02-16T17:44:01.045Z,129.12
2023-02-16T17:47:04.687Z,148.43
2023-02-16T17:50:08.610Z,108.22
2023-02-16T17:53:21.145Z,69.43
2023-02-16T17:56:25.361Z,67.03
2023-02-16T17:59:30.961Z,69.97
2023-02-16T18:02:36.429Z,63.38
2023-02-16T18:05:42.788Z,82.95
2023-02-16T18:08:46.807Z,93.80
2023-02-16T18:11:50.330Z,108.17
2023-02-16T18:14:57.977Z,87.45
2023-02-16T18:18:02.040Z,89.45
2023-02-16T18:21:06.605Z,119.90
2023-02-16T18:24:12.733Z,105.43
2023-02-16T18:27:18.872Z,132.13
2023-02-16T18:30:23.676Z,182.15
2023-02-16T18:33:28.404Z,198.32
2023-02-16T18:36:31.797Z,167.18
2023-02-16T18:39:36.325Z,157.53
2023-02-16T18:42:41.313Z,107.30
2023-02-16T18:45:48.562Z,106.78
2023-02-16T18:48:52.818Z,88.95
2023-02-16T18:51:59.904Z,86.68
2023-02-16T18:55:05.368Z,87.30
2023-02-16T18:58:08.987Z,107.47
2023-02-16T19:01:28.718Z,117.00
2023-02-16T19:04:33.907Z,97.28
2023-02-16T19:07:38.304Z,98.25
2023-02-16T19:10:42.867Z,116.13
2023-02-16T19:13:48.580Z,113.10
2023-02-16T19:16:52.745Z,112.30
2023-02-16T19:20:03.114Z,100.80
2023-02-16T19:23:08.883Z,115.12
2023-02-16T19:26:15.568Z,112.27
2023-02-16T19:29:20.561Z,103.47
2023-02-16T19:32:27.458Z,102.47
2023-02-16T19:35:34.264Z,104.15
2023-02-16T19:38:38.522Z,98.80
2023-02-16T19:41:45.108Z,84.77
2023-02-16T19:44:49.221Z,84.07
2023-02-16T19:47:57.242Z,81.93
2023-02-16T19:51:08.597Z,89.13
2023-02-16T19:54:16.003Z,96.68
2023-02-16T19:57:20.022Z,98.43
2023-02-16T20:00:24.683Z,96.27
2023-02-16T20:03:29.762Z,107.57
2023-02-16T20:06:39.963Z,110.07
2023-02-16T20:09:43.991Z,114.05
2023-02-16T20:12:49.831Z,98.67
2023-02-16T20:15:53.025Z,101.30
2023-02-16T20:18:59.156Z,95.40
2023-02-16T20:22:04.588Z,89.35
2023-02-16T20:25:08.326Z,94.57
2023-02-16T20:28:12.313Z,97.60
2023-02-16T20:31:20.503Z,84.00
2023-02-16T20:34:28.255Z,86.75
2023-02-16T20:37:32.624Z,80.07
2023-02-16T20:40:36.740Z,81.05
2023-02-16T20:43:40.818Z,88.93
2023-02-16T20:46:44.988Z,86.63
2023-02-16T20:49:54.083Z,88.53
2023-02-16T20:52:57.602Z,82.68
2023-02-16T20:56:15.000Z,83.35
2023-02-16T20:59:18.361Z,83.00
2023-02-16T21:02:22.366Z,91.90
2023-02-16T21:05:26.247Z,93.03
2023-02-16T21:08:29.362Z,98.20
2023-02-16T21:11:34.517Z,84.97
2023-02-16T21:14:39.049Z,86.07
2023-02-16T21:17:42.360Z,85.80
2023-02-16T21:20:47.117Z,88.07
2023-02-16T21:23:52.878Z,88.60
2023-02-16T21:26:56.768Z,86.82
2023-02-16T21:30:00.291Z,90.20
2023-02-16T21:33:05.156Z,94.60
2023-02-16T21:36:14.355Z,102.85
2023-02-16T21:39:17.893Z,90.85
2023-02-16T21:42:20.483Z,70.97
2023-02-16T21:45:23.226Z,81.13
2023-02-16T21:48:44.436Z,69.03
2023-02-16T21:51:48.972Z,86.05
2023-02-16T21:55:10.462Z,75.40
2023-02-16T21:58:13.216Z,67.45
2023-02-16T22:01:25.347Z,49.83
2023-02-16T22:04:28.519Z,65.13
2023-02-16T22:07:31.643Z,62.08
2023-02-16T22:10:35.473Z,63.70
2023-02-16T22:13:39.387Z,72.10
2023-02-16T22:16:44.571Z,76.73
2023-02-16T22:19:49.655Z,81.60
2023-02-16T22:22:55.076Z,79.85
2023-02-16T22:25:57.469Z,76.82
2023-02-16T22:29:01.669Z,70.57
2023-02-16T22:32:04.116Z,72.17
2023-02-16T22:35:06.831Z,77.17
2023-02-16T22:38:09.258Z,74.07
2023-02-16T22:41:12.826Z,82.85
2023-02-16T22:44:15.997Z,82.28
2023-02-16T22:47:18.445Z,77.80
2023-02-16T22:50:23.074Z,73.60
2023-02-16T22:53:27.041Z,73.97
2023-02-16T22:56:31.213Z,58.83
2023-02-16T22:59:34.424Z,67.68
2023-02-16T23:02:39.842Z,68.50
2023-02-16T23:05:42.316Z,65.67
2023-02-16T23:08:46.545Z,70.05
2023-02-16T23:11:49.760Z,72.55
2023-02-16T23:14:52.205Z,81.28
2023-02-16T23:17:54.612Z,76.67
2023-02-16T23:20:57.018Z,70.67
2023-02-16T23:24:00.698Z,75.80
2023-02-16T23:27:04.492Z,81.07
2023-02-16T23:30:07.606Z,82.95
2023-02-16T23:33:10.151Z,81.63
2023-02-16T23:36:12.716Z,67.93
2023-02-16T23:39:18.021Z,75.25
2023-02-16T23:42:20.667Z,80.38
2023-02-16T23:45:23.058Z,66.62
2023-02-16T23:48:25.430Z,81.97
2023-02-16T23:51:28.633Z,70.22
2023-02-16T23:54:30.935Z,63.30
2023-02-16T23:57:34.017Z,69.93
